172-й км МНП

Карта отелей и гостиниц, располагающихся рядом с аэропортом 172-й км МНП :

172-й км МНП Республика Коми 65° 4' 5.88" N, 57° 2' 50.9388" E
172-й км МНП Республика Коми 65° 4' 5.88" N, 57° 2' 50.9388" E
Код аэродрома ИКАО
HEC4
Код аэродрома RU
ХЕЦ4
Координаты
N65.06830° E057.04748°
Превышение над уровнем моря
83
Основная полоса
05/23
Курс магнитный
048,8/228,8
Длина основной ВПП
11
Ширина основной ВПП
11
Покрытие основной ВПП
Твёрдое
Освещение ВПП
Нет
Тип: 
Вертодром
Класс аэродрома: 
Принадлежность: 
ГА
Статус: 
Действующий
Сайт: 
E-mail аэродрома: 
Страна: 
Россия
Регион: 
Республика Коми
Город: 
Дополнительная информация: 
Оператор: нет данных.

Найти трансфер

С помощью этой формы Вы можете найти трансфер из аэропорта 172-й км МНП в город, аэропорт или вокзал:

Карта места

Javascript is required to view this map.

Погода в аэропортах:

Авиационная погода в Тбилиси

Регион: 
Погода METAR: 
UGTB 131200Z 20005KT 6000 -TSRA BR FEW008 BKN032CB OVC036 11/10 Q1019 R13R/290054 NOSIG
Время наблюдения
2021-04-13T12:00:00Z
Температура C
11.0
Точка росы
10.0
Направление ветра
200
Скорость ветра (узлы)
5
Метео видимость
3.73
Явления погоды
-TSRA BR
Условия полета
MVFR

Авиационная погода в аэропорту Алыкель

Регион: 
Погода METAR: 
UOOO 131200Z 27009MPS 8000 -SN BLSN BKN008 M04/M05 Q0997 R19/650542 NOSIG RMK QFE732/0976
Время наблюдения
2021-04-13T12:00:00Z
Температура C
-4.0
Точка росы
-5.0
Направление ветра
270
Скорость ветра (узлы)
17
Метео видимость
4.97
Явления погоды
-SN BLSN
Условия полета
IFR
Аэропорт подробнее: 

Авиационная погода в Полярном

Регион: 
Погода METAR: 
UERP 131200Z 20002MPS 6000 -SHSN BKN017CB OVC100 M03/M04 Q0995 R17/492040 NOSIG RMK QFE702
Время наблюдения
2021-04-13T12:00:00Z
Температура C
-3.0
Точка росы
-4.0
Направление ветра
200
Скорость ветра (узлы)
4
Метео видимость
3.73
Явления погоды
-SHSN
Условия полета
MVFR
Аэропорт подробнее: 

Авиационная погода в Угольном

Регион: 
Погода METAR: 
UHMA 131200Z 36008MPS 4400 -SN DRSN SCT038 BKN047 M13/M14 Q1009 REBLSN RESN R01/////// NOSIG RMK TDZ R01/36008G09MPS END R01/36005G07MPS QFE753/1004
Время наблюдения
2021-04-13T12:00:00Z
Температура C
-13.0
Точка росы
-14.0
Направление ветра
360
Скорость ветра (узлы)
16
Метео видимость
2.73
Явления погоды
-SN DRSN SN
Условия полета
IFR
Аэропорт подробнее: